sensor_id;sensor_type;location;lat;lon;timestamp;pressure;altitude;pressure_sealevel;temperature;humidity
74327;BME280;62745;51.060;13.786;2023-04-07T00:02:23;100573.53;;;1.98;70.92
74327;BME280;62745;51.060;13.786;2023-04-07T00:04:49;100568.06;;;2.11;71.31
74327;BME280;62745;51.060;13.786;2023-04-07T00:07:14;100573.34;;;1.90;70.72
74327;BME280;62745;51.060;13.786;2023-04-07T00:09:40;100562.59;;;1.61;71.76
74327;BME280;62745;51.060;13.786;2023-04-07T00:12:05;100570.94;;;1.34;72.15
74327;BME280;62745;51.060;13.786;2023-04-07T00:14:30;100569.69;;;1.17;72.85
74327;BME280;62745;51.060;13.786;2023-04-07T00:16:56;100564.00;;;1.01;74.14
74327;BME280;62745;51.060;13.786;2023-04-07T00:19:21;100567.56;;;1.00;74.80
74327;BME280;62745;51.060;13.786;2023-04-07T00:21:46;100570.81;;;0.93;74.67
74327;BME280;62745;51.060;13.786;2023-04-07T00:24:11;100583.16;;;0.92;74.65
74327;BME280;62745;51.060;13.786;2023-04-07T00:26:37;100577.78;;;0.82;75.24
74327;BME280;62745;51.060;13.786;2023-04-07T00:29:02;100570.50;;;0.75;75.83
74327;BME280;62745;51.060;13.786;2023-04-07T00:31:27;100569.31;;;0.68;76.36
74327;BME280;62745;51.060;13.786;2023-04-07T00:33:53;100572.53;;;0.60;76.97
74327;BME280;62745;51.060;13.786;2023-04-07T00:36:19;100569.56;;;0.53;76.46
74327;BME280;62745;51.060;13.786;2023-04-07T00:38:45;100568.84;;;0.51;76.92
74327;BME280;62745;51.060;13.786;2023-04-07T00:41:10;100570.66;;;0.51;77.16
74327;BME280;62745;51.060;13.786;2023-04-07T00:43:35;100552.00;;;0.43;77.09
74327;BME280;62745;51.060;13.786;2023-04-07T00:46:01;100565.25;;;0.41;77.44
74327;BME280;62745;51.060;13.786;2023-04-07T00:48:26;100567.41;;;0.36;78.07
74327;BME280;62745;51.060;13.786;2023-04-07T00:50:51;100557.03;;;0.35;78.24
74327;BME280;62745;51.060;13.786;2023-04-07T00:53:18;100555.94;;;0.37;78.02
74327;BME280;62745;51.060;13.786;2023-04-07T00:55:43;100554.50;;;0.33;78.16
74327;BME280;62745;51.060;13.786;2023-04-07T00:58:08;100546.25;;;0.26;78.16
74327;BME280;62745;51.060;13.786;2023-04-07T01:00:45;100553.44;;;0.24;79.14
74327;BME280;62745;51.060;13.786;2023-04-07T01:03:19;100548.16;;;0.24;79.60
74327;BME280;62745;51.060;13.786;2023-04-07T01:06:17;100544.59;;;0.25;78.89
74327;BME280;62745;51.060;13.786;2023-04-07T01:08:55;100546.75;;;0.20;78.99
74327;BME280;62745;51.060;13.786;2023-04-07T01:11:41;100535.88;;;0.25;79.25
74327;BME280;62745;51.060;13.786;2023-04-07T01:14:09;100538.84;;;0.32;78.68
74327;BME280;62745;51.060;13.786;2023-04-07T01:16:48;100540.41;;;0.23;78.99
74327;BME280;62745;51.060;13.786;2023-04-07T01:19:36;100532.28;;;0.15;79.43
74327;BME280;62745;51.060;13.786;2023-04-07T01:22:10;100526.19;;;0.03;79.95
74327;BME280;62745;51.060;13.786;2023-04-07T01:27:27;100531.56;;;0.13;79.90
74327;BME280;62745;51.060;13.786;2023-04-07T01:30:00;100521.88;;;0.13;80.42
74327;BME280;62745;51.060;13.786;2023-04-07T01:32:26;100520.47;;;0.54;79.25
74327;BME280;62745;51.060;13.786;2023-04-07T01:34:54;100509.78;;;0.78;77.96
74327;BME280;62745;51.060;13.786;2023-04-07T01:37:21;100518.16;;;0.60;77.63
74327;BME280;62745;51.060;13.786;2023-04-07T01:39:46;100507.09;;;0.35;78.31
74327;BME280;62745;51.060;13.786;2023-04-07T01:42:13;100515.56;;;0.27;78.47
74327;BME280;62745;51.060;13.786;2023-04-07T01:44:39;100515.34;;;0.19;79.15
74327;BME280;62745;51.060;13.786;2023-04-07T01:47:05;100517.34;;;0.26;79.54
74327;BME280;62745;51.060;13.786;2023-04-07T01:49:31;100514.50;;;0.07;79.39
74327;BME280;62745;51.060;13.786;2023-04-07T01:51:58;100510.31;;;0.05;79.05
74327;BME280;62745;51.060;13.786;2023-04-07T01:54:24;100512.81;;;-0.05;79.33
74327;BME280;62745;51.060;13.786;2023-04-07T01:56:51;100520.44;;;-0.02;79.20
74327;BME280;62745;51.060;13.786;2023-04-07T01:59:16;100515.78;;;-0.10;79.10
74327;BME280;62745;51.060;13.786;2023-04-07T02:01:41;100515.31;;;-0.04;79.75
74327;BME280;62745;51.060;13.786;2023-04-07T02:04:57;100518.19;;;-0.07;79.32
74327;BME280;62745;51.060;13.786;2023-04-07T02:07:05;100516.16;;;-0.14;79.68
74327;BME280;62745;51.060;13.786;2023-04-07T02:09:36;100512.53;;;-0.24;79.29
74327;BME280;62745;51.060;13.786;2023-04-07T02:12:04;100507.66;;;-0.29;78.92
74327;BME280;62745;51.060;13.786;2023-04-07T02:14:32;100513.09;;;-0.43;79.08
74327;BME280;62745;51.060;13.786;2023-04-07T02:16:58;100510.00;;;-0.48;79.47
74327;BME280;62745;51.060;13.786;2023-04-07T02:19:25;100513.00;;;-0.31;79.84
74327;BME280;62745;51.060;13.786;2023-04-07T02:21:51;100506.38;;;0.10;79.05
74327;BME280;62745;51.060;13.786;2023-04-07T02:24:19;100514.25;;;0.44;77.56
74327;BME280;62745;51.060;13.786;2023-04-07T02:26:45;100504.19;;;0.71;77.44
74327;BME280;62745;51.060;13.786;2023-04-07T02:29:12;100506.03;;;0.37;77.56
74327;BME280;62745;51.060;13.786;2023-04-07T02:31:37;100502.81;;;0.22;78.42
74327;BME280;62745;51.060;13.786;2023-04-07T02:34:02;100499.91;;;0.14;79.17
74327;BME280;62745;51.060;13.786;2023-04-07T02:36:27;100494.69;;;0.03;79.31
74327;BME280;62745;51.060;13.786;2023-04-07T02:38:53;100486.75;;;-0.19;80.60
74327;BME280;62745;51.060;13.786;2023-04-07T02:41:18;100497.88;;;-0.27;81.27
74327;BME280;62745;51.060;13.786;2023-04-07T02:43:43;100493.41;;;-0.38;81.64
74327;BME280;62745;51.060;13.786;2023-04-07T02:46:09;100498.19;;;-0.43;81.80
74327;BME280;62745;51.060;13.786;2023-04-07T02:48:34;100496.53;;;-0.21;81.89
74327;BME280;62745;51.060;13.786;2023-04-07T02:50:59;100485.94;;;0.47;79.63
74327;BME280;62745;51.060;13.786;2023-04-07T02:53:25;100487.50;;;0.27;78.74
74327;BME280;62745;51.060;13.786;2023-04-07T02:55:50;100480.34;;;0.07;79.59
74327;BME280;62745;51.060;13.786;2023-04-07T02:58:15;100480.47;;;-0.06;80.15
74327;BME280;62745;51.060;13.786;2023-04-07T03:00:41;100484.88;;;0.39;79.72
74327;BME280;62745;51.060;13.786;2023-04-07T03:03:06;100477.31;;;0.56;78.65
74327;BME280;62745;51.060;13.786;2023-04-07T03:05:31;100484.31;;;0.78;77.69
74327;BME280;62745;51.060;13.786;2023-04-07T03:07:56;100479.63;;;0.93;76.99
74327;BME280;62745;51.060;13.786;2023-04-07T03:10:22;100479.22;;;0.98;77.07
74327;BME280;62745;51.060;13.786;2023-04-07T03:12:47;100475.50;;;0.68;77.05
74327;BME280;62745;51.060;13.786;2023-04-07T03:15:12;100478.16;;;0.46;77.81
74327;BME280;62745;51.060;13.786;2023-04-07T03:17:38;100480.00;;;0.34;79.15
74327;BME280;62745;51.060;13.786;2023-04-07T03:20:04;100469.66;;;0.65;78.26
74327;BME280;62745;51.060;13.786;2023-04-07T03:22:29;100457.28;;;0.33;77.96
74327;BME280;62745;51.060;13.786;2023-04-07T03:24:55;100479.75;;;0.26;78.82
74327;BME280;62745;51.060;13.786;2023-04-07T03:27:20;100469.38;;;0.79;78.12
74327;BME280;62745;51.060;13.786;2023-04-07T03:29:45;100469.81;;;0.41;78.24
74327;BME280;62745;51.060;13.786;2023-04-07T03:32:11;100477.13;;;0.15;79.61
74327;BME280;62745;51.060;13.786;2023-04-07T03:34:36;100472.34;;;-0.03;80.37
74327;BME280;62745;51.060;13.786;2023-04-07T03:37:01;100472.81;;;-0.09;80.63
74327;BME280;62745;51.060;13.786;2023-04-07T03:39:27;100456.34;;;-0.22;81.00
74327;BME280;62745;51.060;13.786;2023-04-07T03:41:52;100457.16;;;-0.21;80.88
74327;BME280;62745;51.060;13.786;2023-04-07T03:44:17;100462.19;;;-0.29;81.11
74327;BME280;62745;51.060;13.786;2023-04-07T03:46:42;100466.22;;;-0.37;80.93
74327;BME280;62745;51.060;13.786;2023-04-07T03:49:09;100461.69;;;-0.46;81.69
74327;BME280;62745;51.060;13.786;2023-04-07T03:51:35;100460.25;;;-0.50;81.63
74327;BME280;62745;51.060;13.786;2023-04-07T03:54:00;100458.59;;;-0.40;82.08
74327;BME280;62745;51.060;13.786;2023-04-07T03:56:26;100462.41;;;-0.44;82.28
74327;BME280;62745;51.060;13.786;2023-04-07T03:58:51;100467.44;;;-0.29;81.78
74327;BME280;62745;51.060;13.786;2023-04-07T04:01:16;100459.06;;;0.44;79.98
74327;BME280;62745;51.060;13.786;2023-04-07T04:03:42;100471.50;;;0.30;79.05
74327;BME280;62745;51.060;13.786;2023-04-07T04:06:07;100421.69;;;0.29;78.92
74327;BME280;62745;51.060;13.786;2023-04-07T04:08:32;100461.88;;;0.63;78.49
74327;BME280;62745;51.060;13.786;2023-04-07T04:10:58;100463.06;;;0.70;78.55
74327;BME280;62745;51.060;13.786;2023-04-07T04:13:23;100463.97;;;0.80;78.12
74327;BME280;62745;51.060;13.786;2023-04-07T04:15:48;100472.59;;;0.82;77.66
74327;BME280;62745;51.060;13.786;2023-04-07T04:18:13;100469.53;;;0.98;76.93
74327;BME280;62745;51.060;13.786;2023-04-07T04:20:39;100463.28;;;0.78;77.77
74327;BME280;62745;51.060;13.786;2023-04-07T04:23:04;100467.63;;;0.68;78.48
74327;BME280;62745;51.060;13.786;2023-04-07T04:25:29;100474.75;;;0.77;77.87
74327;BME280;62745;51.060;13.786;2023-04-07T04:27:54;100470.13;;;0.70;77.48
74327;BME280;62745;51.060;13.786;2023-04-07T04:30:20;100476.75;;;0.30;78.41
74327;BME280;62745;51.060;13.786;2023-04-07T04:32:45;100479.75;;;0.26;79.92
74327;BME280;62745;51.060;13.786;2023-04-07T04:35:10;100480.84;;;0.01;78.98
74327;BME280;62745;51.060;13.786;2023-04-07T04:37:36;100476.66;;;-0.13;79.59
74327;BME280;62745;51.060;13.786;2023-04-07T04:40:01;100476.50;;;-0.34;79.89
74327;BME280;62745;51.060;13.786;2023-04-07T04:42:26;100477.44;;;-0.46;80.46
74327;BME280;62745;51.060;13.786;2023-04-07T04:44:52;100473.34;;;-0.61;80.54
74327;BME280;62745;51.060;13.786;2023-04-07T04:47:17;100485.31;;;-0.46;80.44
74327;BME280;62745;51.060;13.786;2023-04-07T04:49:43;100474.22;;;-0.49;80.56
74327;BME280;62745;51.060;13.786;2023-04-07T04:52:08;100479.53;;;-0.62;80.89
74327;BME280;62745;51.060;13.786;2023-04-07T04:54:33;100481.75;;;-0.69;81.31
74327;BME280;62745;51.060;13.786;2023-04-07T04:56:59;100473.53;;;-0.75;81.91
74327;BME280;62745;51.060;13.786;2023-04-07T04:59:25;100471.13;;;-0.78;81.59
74327;BME280;62745;51.060;13.786;2023-04-07T05:01:51;100472.38;;;-0.60;81.89
74327;BME280;62745;51.060;13.786;2023-04-07T05:04:16;100480.13;;;-0.58;81.71
74327;BME280;62745;51.060;13.786;2023-04-07T05:06:41;100470.50;;;-0.36;81.95
74327;BME280;62745;51.060;13.786;2023-04-07T05:09:07;100471.38;;;-0.24;80.53
74327;BME280;62745;51.060;13.786;2023-04-07T05:11:32;100476.97;;;-0.17;80.01
74327;BME280;62745;51.060;13.786;2023-04-07T05:13:57;100480.31;;;-0.26;80.28
74327;BME280;62745;51.060;13.786;2023-04-07T05:16:22;100469.44;;;-0.44;80.56
74327;BME280;62745;51.060;13.786;2023-04-07T05:18:48;100484.47;;;-0.35;81.25
74327;BME280;62745;51.060;13.786;2023-04-07T05:21:13;100472.66;;;-0.41;80.92
74327;BME280;62745;51.060;13.786;2023-04-07T05:23:38;100472.06;;;-0.44;81.42
74327;BME280;62745;51.060;13.786;2023-04-07T05:26:04;100472.69;;;-0.07;80.21
74327;BME280;62745;51.060;13.786;2023-04-07T05:28:29;100471.25;;;-0.22;80.55
74327;BME280;62745;51.060;13.786;2023-04-07T05:30:54;100472.94;;;-0.33;80.72
74327;BME280;62745;51.060;13.786;2023-04-07T05:33:20;100479.00;;;-0.32;80.85
74327;BME280;62745;51.060;13.786;2023-04-07T05:35:45;100470.31;;;-0.33;80.61
74327;BME280;62745;51.060;13.786;2023-04-07T05:38:11;100482.84;;;-0.03;80.38
74327;BME280;62745;51.060;13.786;2023-04-07T05:40:38;100474.50;;;0.37;78.82
74327;BME280;62745;51.060;13.786;2023-04-07T05:43:04;100474.50;;;0.15;78.54
74327;BME280;62745;51.060;13.786;2023-04-07T05:45:29;100480.72;;;0.03;78.57
74327;BME280;62745;51.060;13.786;2023-04-07T05:47:54;100470.91;;;-0.07;79.52
74327;BME280;62745;51.060;13.786;2023-04-07T05:50:19;100477.25;;;-0.09;79.45
74327;BME280;62745;51.060;13.786;2023-04-07T05:52:45;100472.94;;;-0.10;80.09
74327;BME280;62745;51.060;13.786;2023-04-07T05:55:10;100467.81;;;-0.01;79.66
74327;BME280;62745;51.060;13.786;2023-04-07T05:57:35;100470.53;;;-0.02;79.89
74327;BME280;62745;51.060;13.786;2023-04-07T06:00:01;100477.25;;;0.02;80.45
74327;BME280;62745;51.060;13.786;2023-04-07T06:02:26;100479.25;;;-0.02;80.47
74327;BME280;62745;51.060;13.786;2023-04-07T06:04:51;100472.00;;;0.02;81.05
74327;BME280;62745;51.060;13.786;2023-04-07T06:07:16;100468.06;;;0.19;80.47
74327;BME280;62745;51.060;13.786;2023-04-07T06:09:42;100475.19;;;0.28;79.99
74327;BME280;62745;51.060;13.786;2023-04-07T06:12:07;100475.91;;;0.52;80.09
74327;BME280;62745;51.060;13.786;2023-04-07T06:14:33;100470.28;;;0.57;79.56
74327;BME280;62745;51.060;13.786;2023-04-07T06:16:59;100466.19;;;0.64;79.14
74327;BME280;62745;51.060;13.786;2023-04-07T06:19:24;100467.31;;;0.82;79.21
74327;BME280;62745;51.060;13.786;2023-04-07T06:21:51;100465.06;;;0.89;78.67
74327;BME280;62745;51.060;13.786;2023-04-07T06:24:16;100467.25;;;1.05;78.82
74327;BME280;62745;51.060;13.786;2023-04-07T06:26:43;100468.31;;;1.34;77.39
74327;BME280;62745;51.060;13.786;2023-04-07T06:29:08;100469.78;;;1.48;77.10
74327;BME280;62745;51.060;13.786;2023-04-07T06:31:34;100461.91;;;1.48;76.43
74327;BME280;62745;51.060;13.786;2023-04-07T06:33:59;100459.00;;;1.51;75.96
74327;BME280;62745;51.060;13.786;2023-04-07T06:36:24;100458.09;;;1.62;76.64
74327;BME280;62745;51.060;13.786;2023-04-07T06:38:51;100461.81;;;1.80;78.27
74327;BME280;62745;51.060;13.786;2023-04-07T06:41:16;100460.72;;;1.83;75.92
74327;BME280;62745;51.060;13.786;2023-04-07T06:43:43;100456.19;;;2.25;77.04
74327;BME280;62745;51.060;13.786;2023-04-07T06:46:08;100446.63;;;2.33;77.23
74327;BME280;62745;51.060;13.786;2023-04-07T06:48:34;100443.09;;;2.54;74.62
74327;BME280;62745;51.060;13.786;2023-04-07T06:50:59;100446.03;;;2.70;73.41
74327;BME280;62745;51.060;13.786;2023-04-07T06:53:24;100453.81;;;3.00;71.38
74327;BME280;62745;51.060;13.786;2023-04-07T06:55:50;100457.13;;;2.54;69.17
74327;BME280;62745;51.060;13.786;2023-04-07T06:58:17;100452.84;;;2.72;70.67
74327;BME280;62745;51.060;13.786;2023-04-07T07:00:42;100455.47;;;2.82;70.52
74327;BME280;62745;51.060;13.786;2023-04-07T07:03:07;100449.94;;;2.76;68.32
74327;BME280;62745;51.060;13.786;2023-04-07T07:05:32;100453.13;;;2.79;68.22
74327;BME280;62745;51.060;13.786;2023-04-07T07:07:58;100455.63;;;2.81;66.91
74327;BME280;62745;51.060;13.786;2023-04-07T07:10:23;100447.69;;;2.81;67.37
74327;BME280;62745;51.060;13.786;2023-04-07T07:12:49;100448.38;;;2.83;66.97
74327;BME280;62745;51.060;13.786;2023-04-07T07:15:15;100449.25;;;2.93;65.80
74327;BME280;62745;51.060;13.786;2023-04-07T07:17:40;100448.28;;;3.13;70.58
74327;BME280;62745;51.060;13.786;2023-04-07T07:20:06;100446.88;;;3.19;65.68
74327;BME280;62745;51.060;13.786;2023-04-07T07:22:31;100444.66;;;3.24;66.76
74327;BME280;62745;51.060;13.786;2023-04-07T07:24:56;100443.31;;;3.67;67.99
74327;BME280;62745;51.060;13.786;2023-04-07T07:27:22;100452.06;;;3.86;68.63
74327;BME280;62745;51.060;13.786;2023-04-07T07:29:47;100446.56;;;3.98;63.65
74327;BME280;62745;51.060;13.786;2023-04-07T07:32:12;100459.28;;;4.21;63.06
74327;BME280;62745;51.060;13.786;2023-04-07T07:34:37;100457.88;;;4.55;63.05
74327;BME280;62745;51.060;13.786;2023-04-07T07:37:03;100458.13;;;4.79;61.45
74327;BME280;62745;51.060;13.786;2023-04-07T07:39:28;100460.00;;;4.87;62.20
74327;BME280;62745;51.060;13.786;2023-04-07T07:41:54;100462.53;;;4.88;64.07
74327;BME280;62745;51.060;13.786;2023-04-07T07:44:19;100469.81;;;5.04;64.46
74327;BME280;62745;51.060;13.786;2023-04-07T07:46:45;100468.66;;;5.24;64.61
74327;BME280;62745;51.060;13.786;2023-04-07T07:49:10;100470.16;;;5.44;62.54
74327;BME280;62745;51.060;13.786;2023-04-07T07:51:35;100467.06;;;5.31;63.75
74327;BME280;62745;51.060;13.786;2023-04-07T07:54:01;100464.94;;;5.17;64.06
74327;BME280;62745;51.060;13.786;2023-04-07T07:56:26;100464.09;;;5.17;64.86
74327;BME280;62745;51.060;13.786;2023-04-07T07:58:51;100470.22;;;5.35;64.72
74327;BME280;62745;51.060;13.786;2023-04-07T08:01:17;100470.16;;;5.44;64.24
74327;BME280;62745;51.060;13.786;2023-04-07T08:03:42;100465.78;;;5.87;62.72
74327;BME280;62745;51.060;13.786;2023-04-07T08:06:07;100472.91;;;5.87;62.32
74327;BME280;62745;51.060;13.786;2023-04-07T08:08:33;100463.75;;;5.99;62.37
74327;BME280;62745;51.060;13.786;2023-04-07T08:10:59;100471.88;;;6.31;61.50
74327;BME280;62745;51.060;13.786;2023-04-07T08:13:25;100468.03;;;6.26;61.04
74327;BME280;62745;51.060;13.786;2023-04-07T08:15:50;100473.03;;;6.37;61.06
74327;BME280;62745;51.060;13.786;2023-04-07T08:18:16;100469.16;;;6.57;60.23
74327;BME280;62745;51.060;13.786;2023-04-07T08:20:41;100469.38;;;6.80;59.54
74327;BME280;62745;51.060;13.786;2023-04-07T08:23:06;100469.09;;;7.00;59.33
74327;BME280;62745;51.060;13.786;2023-04-07T08:25:31;100482.44;;;7.40;57.85
74327;BME280;62745;51.060;13.786;2023-04-07T08:27:57;100474.13;;;7.60;57.01
74327;BME280;62745;51.060;13.786;2023-04-07T08:30:22;100475.75;;;7.77;56.85
74327;BME280;62745;51.060;13.786;2023-04-07T08:32:47;100469.97;;;7.57;55.66
74327;BME280;62745;51.060;13.786;2023-04-07T08:35:13;100477.53;;;8.01;54.63
74327;BME280;62745;51.060;13.786;2023-04-07T08:37:39;100475.19;;;8.14;55.23
74327;BME280;62745;51.060;13.786;2023-04-07T08:40:05;100480.97;;;8.34;54.54
74327;BME280;62745;51.060;13.786;2023-04-07T08:42:32;100474.94;;;8.32;53.29
74327;BME280;62745;51.060;13.786;2023-04-07T08:45:03;100466.97;;;8.71;52.58
74327;BME280;62745;51.060;13.786;2023-04-07T08:47:29;100465.19;;;8.63;50.88
74327;BME280;62745;51.060;13.786;2023-04-07T08:49:56;100464.09;;;8.81;49.08
74327;BME280;62745;51.060;13.786;2023-04-07T08:52:31;100461.69;;;9.17;49.11
74327;BME280;62745;51.060;13.786;2023-04-07T08:54:57;100457.38;;;9.16;49.67
74327;BME280;62745;51.060;13.786;2023-04-07T08:57:27;100461.94;;;9.07;50.34
74327;BME280;62745;51.060;13.786;2023-04-07T08:59:54;100464.31;;;8.71;48.63
74327;BME280;62745;51.060;13.786;2023-04-07T09:02:19;100455.84;;;8.98;49.23
74327;BME280;62745;51.060;13.786;2023-04-07T09:04:45;100448.31;;;9.02;48.70
74327;BME280;62745;51.060;13.786;2023-04-07T09:07:10;100457.06;;;8.88;48.79
74327;BME280;62745;51.060;13.786;2023-04-07T09:09:36;100454.91;;;9.14;48.21
74327;BME280;62745;51.060;13.786;2023-04-07T09:12:01;100446.19;;;9.20;47.67
74327;BME280;62745;51.060;13.786;2023-04-07T09:14:27;100445.41;;;9.34;46.68
74327;BME280;62745;51.060;13.786;2023-04-07T09:16:53;100444.28;;;9.29;46.06
74327;BME280;62745;51.060;13.786;2023-04-07T09:19:18;100450.09;;;9.70;45.32
74327;BME280;62745;51.060;13.786;2023-04-07T09:21:51;100449.38;;;10.06;45.39
74327;BME280;62745;51.060;13.786;2023-04-07T09:24:28;100446.47;;;10.30;44.18
74327;BME280;62745;51.060;13.786;2023-04-07T09:27:16;100446.47;;;10.45;44.34
74327;BME280;62745;51.060;13.786;2023-04-07T09:29:44;100442.31;;;9.23;40.99
74327;BME280;62745;51.060;13.786;2023-04-07T09:32:10;100439.88;;;9.36;41.71
74327;BME280;62745;51.060;13.786;2023-04-07T09:34:40;100440.25;;;9.85;41.96
74327;BME280;62745;51.060;13.786;2023-04-07T09:37:06;100440.53;;;10.05;44.48
74327;BME280;62745;51.060;13.786;2023-04-07T09:39:32;100437.97;;;10.12;43.95
74327;BME280;62745;51.060;13.786;2023-04-07T09:41:57;100439.72;;;10.19;42.88
74327;BME280;62745;51.060;13.786;2023-04-07T09:44:23;100435.59;;;10.32;40.96
74327;BME280;62745;51.060;13.786;2023-04-07T09:46:56;100423.09;;;10.68;40.71
74327;BME280;62745;51.060;13.786;2023-04-07T09:49:23;100424.47;;;10.79;41.04
74327;BME280;62745;51.060;13.786;2023-04-07T09:56:57;100429.56;;;10.95;40.36
74327;BME280;62745;51.060;13.786;2023-04-07T09:59:23;100427.00;;;11.08;39.38
74327;BME280;62745;51.060;13.786;2023-04-07T10:01:50;100424.66;;;10.99;39.56
74327;BME280;62745;51.060;13.786;2023-04-07T10:04:15;100421.78;;;10.79;39.93
74327;BME280;62745;51.060;13.786;2023-04-07T15:36:49;100376.84;;;10.17;45.33
74327;BME280;62745;51.060;13.786;2023-04-07T15:39:17;100388.75;;;10.65;45.04
74327;BME280;62745;51.060;13.786;2023-04-07T15:41:43;100366.94;;;10.62;44.69
74327;BME280;62745;51.060;13.786;2023-04-07T15:44:08;100381.06;;;10.77;43.93
74327;BME280;62745;51.060;13.786;2023-04-07T15:46:34;100363.78;;;10.07;44.38
74327;BME280;62745;51.060;13.786;2023-04-07T15:49:01;100377.63;;;10.26;45.34
74327;BME280;62745;51.060;13.786;2023-04-07T15:51:28;100385.94;;;10.37;44.75
74327;BME280;62745;51.060;13.786;2023-04-07T15:53:55;100371.91;;;9.99;44.72
74327;BME280;62745;51.060;13.786;2023-04-07T15:56:20;100362.25;;;9.98;44.78
74327;BME280;62745;51.060;13.786;2023-04-07T15:58:48;100358.66;;;9.61;45.46
74327;BME280;62745;51.060;13.786;2023-04-07T16:01:13;100396.47;;;9.65;45.98
74327;BME280;62745;51.060;13.786;2023-04-07T16:03:39;100376.66;;;9.45;46.89
74327;BME280;62745;51.060;13.786;2023-04-07T16:06:04;100371.81;;;9.63;47.82
74327;BME280;62745;51.060;13.786;2023-04-07T16:08:29;100374.22;;;9.20;48.03
74327;BME280;62745;51.060;13.786;2023-04-07T16:10:55;100399.81;;;9.07;48.74
74327;BME280;62745;51.060;13.786;2023-04-07T16:13:20;100373.13;;;8.92;49.16
74327;BME280;62745;51.060;13.786;2023-04-07T16:15:45;100384.91;;;8.97;49.29
74327;BME280;62745;51.060;13.786;2023-04-07T16:18:11;100377.84;;;9.04;49.92
74327;BME280;62745;51.060;13.786;2023-04-07T16:20:36;100407.47;;;9.10;50.53
74327;BME280;62745;51.060;13.786;2023-04-07T16:23:01;100389.63;;;8.64;51.00
74327;BME280;62745;51.060;13.786;2023-04-07T16:25:27;100399.91;;;8.44;51.87
74327;BME280;62745;51.060;13.786;2023-04-07T16:27:52;100401.03;;;8.11;50.85
74327;BME280;62745;51.060;13.786;2023-04-07T16:30:18;100411.00;;;8.09;51.31
74327;BME280;62745;51.060;13.786;2023-04-07T16:32:44;100387.25;;;7.99;52.22
74327;BME280;62745;51.060;13.786;2023-04-07T16:35:11;100415.03;;;7.97;52.49
74327;BME280;62745;51.060;13.786;2023-04-07T16:37:37;100427.94;;;8.16;52.03
74327;BME280;62745;51.060;13.786;2023-04-07T16:40:03;100428.00;;;8.00;52.43
74327;BME280;62745;51.060;13.786;2023-04-07T16:42:29;100422.84;;;7.98;52.48
74327;BME280;62745;51.060;13.786;2023-04-07T16:44:55;100437.28;;;8.04;52.38
74327;BME280;62745;51.060;13.786;2023-04-07T16:47:25;100439.63;;;7.99;52.67
74327;BME280;62745;51.060;13.786;2023-04-07T16:49:50;100431.38;;;7.69;52.72
74327;BME280;62745;51.060;13.786;2023-04-07T16:52:16;100450.53;;;7.57;53.41
74327;BME280;62745;51.060;13.786;2023-04-07T16:54:42;100431.41;;;7.53;52.38
74327;BME280;62745;51.060;13.786;2023-04-07T16:57:07;100439.00;;;7.80;52.05
74327;BME280;62745;51.060;13.786;2023-04-07T16:59:32;100410.66;;;7.40;52.31
74327;BME280;62745;51.060;13.786;2023-04-07T17:01:58;100457.66;;;7.64;52.80
74327;BME280;62745;51.060;13.786;2023-04-07T17:04:23;100443.53;;;7.64;52.86
74327;BME280;62745;51.060;13.786;2023-04-07T17:06:48;100459.81;;;7.77;53.51
74327;BME280;62745;51.060;13.786;2023-04-07T17:09:13;100463.13;;;7.71;53.31
74327;BME280;62745;51.060;13.786;2023-04-07T17:11:42;100474.59;;;7.63;54.16
74327;BME280;62745;51.060;13.786;2023-04-07T17:14:07;100415.16;;;7.23;54.54
74327;BME280;62745;51.060;13.786;2023-04-07T17:16:33;100463.63;;;7.66;54.38
74327;BME280;62745;51.060;13.786;2023-04-07T17:18:58;100462.47;;;7.77;55.07
74327;BME280;62745;51.060;13.786;2023-04-07T17:21:23;100443.38;;;7.57;54.43
74327;BME280;62745;51.060;13.786;2023-04-07T17:23:48;100464.97;;;7.62;55.18
74327;BME280;62745;51.060;13.786;2023-04-07T17:26:14;100489.06;;;7.77;55.80
74327;BME280;62745;51.060;13.786;2023-04-07T17:28:40;100457.19;;;7.44;55.91
74327;BME280;62745;51.060;13.786;2023-04-07T17:31:05;100471.78;;;7.73;56.02
74327;BME280;62745;51.060;13.786;2023-04-07T17:33:31;100468.16;;;7.41;56.16
74327;BME280;62745;51.060;13.786;2023-04-07T17:36:00;100472.13;;;7.45;56.90
74327;BME280;62745;51.060;13.786;2023-04-07T17:38:25;100483.25;;;7.49;57.07
74327;BME280;62745;51.060;13.786;2023-04-07T17:40:56;100494.06;;;7.39;57.17
74327;BME280;62745;51.060;13.786;2023-04-07T17:43:22;100489.56;;;7.56;56.93
74327;BME280;62745;51.060;13.786;2023-04-07T17:45:47;100471.47;;;7.27;57.80
74327;BME280;62745;51.060;13.786;2023-04-07T17:48:12;100511.81;;;7.39;58.80
74327;BME280;62745;51.060;13.786;2023-04-07T17:50:38;100504.97;;;7.20;59.25
74327;BME280;62745;51.060;13.786;2023-04-07T17:53:03;100504.16;;;7.36;58.88
74327;BME280;62745;51.060;13.786;2023-04-07T17:55:28;100487.22;;;7.20;59.49
74327;BME280;62745;51.060;13.786;2023-04-07T17:57:53;100477.06;;;6.91;60.81
74327;BME280;62745;51.060;13.786;2023-04-07T18:00:24;100535.19;;;7.19;60.08
74327;BME280;62745;51.060;13.786;2023-04-07T18:02:50;100498.88;;;6.61;62.14
74327;BME280;62745;51.060;13.786;2023-04-07T18:05:15;100510.00;;;6.64;63.67
74327;BME280;62745;51.060;13.786;2023-04-07T18:07:40;100545.44;;;6.89;64.16
74327;BME280;62745;51.060;13.786;2023-04-07T18:10:06;100516.22;;;6.89;64.23
74327;BME280;62745;51.060;13.786;2023-04-07T18:12:32;100532.22;;;7.06;64.00
74327;BME280;62745;51.060;13.786;2023-04-07T18:14:57;100521.22;;;7.01;64.67
74327;BME280;62745;51.060;13.786;2023-04-07T18:17:22;100534.66;;;6.91;63.87
74327;BME280;62745;51.060;13.786;2023-04-07T18:19:48;100527.91;;;6.62;64.35
74327;BME280;62745;51.060;13.786;2023-04-07T18:22:13;100531.56;;;6.70;66.15